Time;durP1;ratioP1;P1;durP2;ratioP2;P2;SDS_P1;SDS_P2;PMS_P1;PMS_P2;Temp;Humidity;BMP_temperature;BMP_pressure;BME280_temperature;BME280_humidity;BME280_pressure;Samples;Min_cycle;Max_cycle;Signal;HPM_P1;HPM_P2
2022/09/08 00:02:04;;;;;;;5.30;4.90;;;18.20;99.90;;;;;;5015780;28;20484;-74
2022/09/08 00:04:31;;;;;;;6.30;4.80;;;18.20;99.90;;;;;;5016121;28;20454;-74
2022/09/08 00:06:58;;;;;;;12.80;5.37;;;18.20;99.90;;;;;;5016171;28;20452;-74
2022/09/08 00:09:25;;;;;;;6.00;5.50;;;18.20;99.90;;;;;;5016226;28;20566;-74
2022/09/08 00:11:51;;;;;;;7.20;5.17;;;18.10;99.90;;;;;;5015905;28;21012;-73
2022/09/08 00:14:19;;;;;;;8.17;5.40;;;18.10;99.90;;;;;;5015468;28;21068;-74
2022/09/08 00:16:46;;;;;;;5.83;5.10;;;18.10;99.90;;;;;;5015747;28;20451;-73
2022/09/08 00:19:13;;;;;;;13.53;4.90;;;18.10;99.90;;;;;;5015016;28;20529;-74
2022/09/08 00:21:40;;;;;;;7.13;5.60;;;18.00;99.90;;;;;;5015692;28;20448;-73
2022/09/08 00:24:06;;;;;;;6.30;5.40;;;18.00;99.90;;;;;;5015667;28;20454;-73
2022/09/08 00:26:33;;;;;;;5.70;4.60;;;17.90;99.90;;;;;;5015495;28;20867;-73
2022/09/08 00:29:00;;;;;;;5.57;5.10;;;17.90;99.90;;;;;;5015261;28;20889;-73
2022/09/08 00:31:28;;;;;;;8.30;4.60;;;17.90;99.90;;;;;;5015032;28;20451;-73
2022/09/08 00:33:54;;;;;;;6.40;5.23;;;17.90;1.00;;;;;;5015083;28;20570;-74
2022/09/08 00:36:21;;;;;;;6.20;5.23;;;17.80;1.00;;;;;;5015229;28;20448;-74
2022/09/08 00:38:51;;;;;;;9.33;5.00;;;17.70;1.00;;;;;;5014992;28;20928;-74
2022/09/08 00:41:18;;;;;;;10.30;5.20;;;17.80;1.00;;;;;;5014965;28;20440;-74
2022/09/08 00:43:47;;;;;;;5.80;5.17;;;17.80;99.90;;;;;;5014906;28;20452;-75
2022/09/08 00:46:22;;;;;;;9.27;5.20;;;17.70;99.90;;;;;;5014930;28;20439;-74
2022/09/08 00:48:54;;;;;;;8.10;6.27;;;17.70;1.00;;;;;;5014963;28;20486;-74
2022/09/08 00:51:23;;;;;;;7.17;4.90;;;17.70;1.00;;;;;;5014870;28;20522;-74
2022/09/08 00:53:51;;;;;;;7.17;5.10;;;17.60;1.00;;;;;;5014840;28;20447;-74
2022/09/08 00:56:19;;;;;;;5.60;5.10;;;17.70;1.00;;;;;;5015415;28;20958;-73
2022/09/08 00:58:46;;;;;;;5.63;4.83;;;17.60;1.00;;;;;;5014447;28;20472;-73
2022/09/08 01:01:12;;;;;;;7.70;5.43;;;17.60;1.00;;;;;;5014657;28;20448;-74
2022/09/08 01:03:41;;;;;;;5.30;4.63;;;17.60;1.00;;;;;;5014542;28;20830;-73
2022/09/08 01:06:20;;;;;;;6.57;4.80;;;17.60;99.90;;;;;;5014544;28;20453;-73
2022/09/08 01:14:47;;;;;;;7.17;4.90;;;17.50;99.90;;;;;;4992920;28;20495;-73
2022/09/08 01:17:18;;;;;;;6.63;4.83;;;17.50;99.90;;;;;;5005702;28;20539;-73
2022/09/08 01:19:47;;;;;;;9.90;5.30;;;17.50;99.90;;;;;;5015054;28;20443;-73
2022/09/08 01:22:27;;;;;;;11.77;5.00;;;17.50;99.90;;;;;;5014274;28;20554;-74
2022/09/08 01:25:04;;;;;;;4.90;4.43;;;17.50;99.90;;;;;;5014267;28;20431;-73
2022/09/08 01:27:34;;;;;;;10.53;4.60;;;17.30;1.00;;;;;;5013993;28;20914;-73
2022/09/08 01:30:03;;;;;;;6.33;4.60;;;17.40;99.90;;;;;;5014233;28;20456;-74
2022/09/08 01:32:33;;;;;;;5.30;4.57;;;17.50;99.90;;;;;;5014009;28;20447;-74
2022/09/08 01:34:59;;;;;;;6.93;4.90;;;17.50;99.90;;;;;;5014004;28;20491;-74
2022/09/08 01:37:26;;;;;;;7.13;4.63;;;17.20;99.90;;;;;;5014105;28;20803;-73
2022/09/08 01:39:53;;;;;;;10.30;5.00;;;17.40;99.90;;;;;;5014371;28;20452;-73
2022/09/08 01:42:20;;;;;;;18.17;5.83;;;17.40;99.90;;;;;;5014344;28;20457;-73
2022/09/08 01:44:48;;;;;;;5.07;4.50;;;17.30;99.90;;;;;;5013377;28;20452;-73
2022/09/08 01:47:15;;;;;;;4.63;4.17;;;;;;;;;;5013821;28;20448;-74
2022/09/08 01:49:42;;;;;;;7.77;5.10;;;17.40;99.90;;;;;;5014076;28;20447;-73
2022/09/08 01:52:09;;;;;;;7.37;3.90;;;17.30;99.90;;;;;;5016625;28;20447;-73
2022/09/08 01:54:36;;;;;;;5.70;4.13;;;17.30;99.90;;;;;;5018097;28;20964;-73
2022/09/08 01:57:03;;;;;;;6.23;4.50;;;17.30;99.90;;;;;;5023289;28;20455;-73
2022/09/08 01:59:29;;;;;;;8.03;4.53;;;17.30;99.90;;;;;;5025417;28;20513;-73
2022/09/08 02:01:58;;;;;;;6.37;4.20;;;17.30;99.90;;;;;;5018355;28;20830;-74
2022/09/08 02:04:26;;;;;;;6.80;4.70;;;17.20;99.90;;;;;;5013687;28;20942;-73
2022/09/08 02:06:53;;;;;;;7.80;4.00;;;17.30;99.90;;;;;;5013598;28;20482;-74
2022/09/08 02:09:20;;;;;;;10.00;4.30;;;17.30;99.90;;;;;;5013390;28;20945;-74
2022/09/08 02:11:48;;;;;;;3.90;3.60;;;17.20;99.90;;;;;;5013353;28;20483;-74
2022/09/08 02:14:15;;;;;;;4.83;4.33;;;17.20;99.90;;;;;;5013256;28;20514;-74
2022/09/08 02:16:42;;;;;;;7.13;4.30;;;17.10;99.90;;;;;;5013105;28;21065;-73
2022/09/08 02:19:10;;;;;;;5.40;4.30;;;17.10;99.90;;;;;;5038512;22;20497;-82
2022/09/08 02:21:37;;;;;;;7.37;3.70;;;17.10;99.90;;;;;;5017469;28;20538;-82
2022/09/08 02:24:04;;;;;;;5.07;3.93;;;17.10;99.90;;;;;;5017780;28;20563;-81
2022/09/08 02:26:31;;;;;;;4.50;4.10;;;17.10;99.90;;;;;;5017131;28;20443;-81
2022/09/08 02:28:58;;;;;;;8.87;3.70;;;17.00;99.90;;;;;;5015483;28;20467;-81
2022/09/08 02:31:27;;;;;;;8.93;5.30;;;17.00;99.90;;;;;;5015279;28;20474;-81
2022/09/08 02:33:54;;;;;;;7.33;3.43;;;17.00;99.90;;;;;;5014812;28;20451;-81
2022/09/08 02:36:22;;;;;;;4.50;4.00;;;17.00;99.90;;;;;;5014943;28;20483;-82
2022/09/08 02:38:50;;;;;;;6.23;3.30;;;17.00;99.90;;;;;;5014372;28;20479;-82
2022/09/08 02:41:17;;;;;;;6.20;3.87;;;17.00;99.90;;;;;;5014469;28;20426;-81
2022/09/08 02:43:43;;;;;;;6.80;4.00;;;17.00;99.90;;;;;;5015146;28;20509;-81
2022/09/08 02:46:11;;;;;;;6.93;4.50;;;17.00;99.90;;;;;;5014895;28;20443;-81
2022/09/08 02:48:38;;;;;;;6.57;4.50;;;16.90;99.90;;;;;;5014808;28;20463;-81
2022/09/08 02:51:07;;;;;;;4.70;4.13;;;16.90;99.90;;;;;;5014735;28;20443;-81
2022/09/08 02:53:36;;;;;;;7.20;3.20;;;16.90;99.90;;;;;;5013382;28;20837;-82
2022/09/08 02:56:04;;;;;;;4.97;3.50;;;16.80;99.90;;;;;;5016492;28;20483;-81
2022/09/08 02:58:31;;;;;;;6.10;3.73;;;16.80;99.90;;;;;;5016969;28;20994;-81
2022/09/08 03:00:58;;;;;;;8.00;3.40;;;16.80;99.70;;;;;;5017861;28;20447;-81
2022/09/08 03:03:25;;;;;;;6.80;4.13;;;16.80;66.60;;;;;;5017479;28;20513;-81
2022/09/08 03:05:52;;;;;;;5.33;3.73;;;16.80;61.40;;;;;;5017244;28;20447;-82
2022/09/08 03:08:20;;;;;;;4.00;3.67;;;16.80;24.10;;;;;;5018115;28;20471;-81
2022/09/08 03:10:49;;;;;;;4.00;3.60;;;16.70;7.00;;;;;;5017812;28;20505;-81
2022/09/08 03:13:16;;;;;;;5.13;3.67;;;16.80;1.00;;;;;;5017464;28;20869;-82
2022/09/08 03:15:43;;;;;;;4.87;3.90;;;16.70;1.00;;;;;;5017502;28;20878;-82
2022/09/08 03:18:10;;;;;;;4.23;3.83;;;16.70;1.00;;;;;;5019308;28;20993;-81
2022/09/08 03:20:39;;;;;;;4.30;3.90;;;16.80;1.00;;;;;;5019431;28;20435;-81
2022/09/08 03:23:07;;;;;;;5.60;3.47;;;16.70;1.00;;;;;;5017724;28;21031;-81
2022/09/08 03:25:36;;;;;;;5.33;4.07;;;16.70;1.00;;;;;;5017144;28;20447;-81
2022/09/08 03:28:04;;;;;;;5.60;4.27;;;16.60;1.00;;;;;;5017386;28;20525;-81
2022/09/08 03:30:31;;;;;;;5.43;3.20;;;16.60;1.00;;;;;;5018017;28;20443;-81
2022/09/08 03:32:58;;;;;;;6.27;3.30;;;16.60;1.00;;;;;;5017828;28;20525;-81
2022/09/08 03:35:25;;;;;;;4.93;3.33;;;16.30;4.80;;;;;;5018155;28;20904;-81
2022/09/08 03:37:54;;;;;;;9.00;4.77;;;16.70;66.60;;;;;;5017699;28;20850;-81
2022/09/08 03:40:20;;;;;;;4.80;4.20;;;16.50;1.00;;;;;;5019283;28;20447;-81
2022/09/08 03:42:47;;;;;;;5.93;3.30;;;16.50;1.00;;;;;;5017478;28;20451;-81
2022/09/08 03:45:17;;;;;;;4.20;3.40;;;16.40;1.00;;;;;;5017788;28;20868;-83
2022/09/08 03:47:44;;;;;;;8.07;3.73;;;16.40;57.90;;;;;;5018632;28;20431;-82
2022/09/08 03:50:13;;;;;;;7.00;3.77;;;16.40;1.00;;;;;;5018183;28;20498;-81
2022/09/08 03:52:39;;;;;;;8.20;3.33;;;16.40;1.00;;;;;;5017999;28;20443;-82
2022/09/08 03:55:08;;;;;;;4.10;3.70;;;16.40;1.00;;;;;;5017666;28;20458;-81
2022/09/08 03:57:35;;;;;;;4.00;3.70;;;16.50;1.00;;;;;;5017600;28;20455;-81
2022/09/08 04:00:04;;;;;;;7.50;3.80;;;16.40;1.00;;;;;;5018189;28;20447;-82
2022/09/08 04:02:33;;;;;;;9.60;3.77;;;16.30;1.00;;;;;;5018660;28;20447;-81
2022/09/08 04:04:59;;;;;;;8.30;3.90;;;16.30;1.00;;;;;;5019328;28;20958;-82
2022/09/08 04:07:29;;;;;;;5.47;3.70;;;16.30;1.00;;;;;;5019308;28;20810;-82
2022/09/08 04:09:56;;;;;;;4.70;3.97;;;16.30;1.00;;;;;;5019600;28;20594;-81
2022/09/08 04:12:23;;;;;;;5.83;3.80;;;16.30;1.00;;;;;;5019078;28;20762;-81
2022/09/08 04:14:51;;;;;;;4.27;3.87;;;16.30;1.00;;;;;;5019741;28;20444;-81
2022/09/08 04:17:18;;;;;;;7.17;6.30;;;16.20;1.00;;;;;;5019968;28;20479;-81
2022/09/08 04:19:49;;;;;;;6.80;5.27;;;16.30;1.00;;;;;;5018784;28;20497;-82
2022/09/08 04:22:16;;;;;;;4.40;3.97;;;16.20;1.00;;;;;;5019866;28;20885;-81
2022/09/08 04:24:43;;;;;;;6.67;3.80;;;16.20;1.00;;;;;;5022648;28;20429;-81
2022/09/08 04:27:10;;;;;;;7.50;4.70;;;16.20;1.00;;;;;;5024941;28;20444;-82
2022/09/08 04:29:37;;;;;;;6.50;4.23;;;16.10;1.00;;;;;;5026311;28;20454;-81
2022/09/08 04:32:04;;;;;;;5.13;4.27;;;16.10;1.00;;;;;;5026341;28;20470;-81
2022/09/08 04:34:31;;;;;;;5.70;3.90;;;16.10;1.00;;;;;;5027526;28;20460;-81
2022/09/08 04:36:59;;;;;;;8.40;4.33;;;16.10;1.00;;;;;;5028109;28;20458;-80
2022/09/08 04:39:26;;;;;;;4.77;3.93;;;16.10;1.00;;;;;;5029085;28;20982;-83
2022/09/08 04:41:54;;;;;;;5.07;3.60;;;16.10;1.00;;;;;;5028425;28;20463;-82
2022/09/08 04:44:21;;;;;;;6.27;4.30;;;16.00;1.00;;;;;;5029425;28;20433;-82
2022/09/08 04:46:48;;;;;;;3.90;3.50;;;16.00;1.00;;;;;;5028778;28;20946;-80
2022/09/08 04:49:15;;;;;;;5.80;4.20;;;16.00;1.00;;;;;;5030674;28;20475;-82
2022/09/08 04:51:42;;;;;;;6.13;3.50;;;16.10;1.00;;;;;;5029893;28;20461;-81
2022/09/08 04:54:11;;;;;;;10.97;6.33;;;16.10;1.00;;;;;;5030178;28;20526;-81
2022/09/08 04:56:38;;;;;;;5.00;4.10;;;16.10;1.00;;;;;;5029966;28;20490;-81
2022/09/08 04:59:05;;;;;;;8.33;4.60;;;16.30;1.00;;;;;;5031019;28;20855;-82
2022/09/08 05:01:35;;;;;;;4.40;3.73;;;16.20;1.00;;;;;;5030873;28;20447;-81
2022/09/08 05:04:04;;;;;;;9.70;4.90;;;16.10;1.00;;;;;;5031852;28;20435;-80
2022/09/08 05:06:33;;;;;;;4.83;4.20;;;16.10;1.00;;;;;;5031293;28;20814;-81
2022/09/08 05:09:01;;;;;;;7.83;3.73;;;16.10;1.00;;;;;;5031695;28;20473;-81
2022/09/08 05:11:31;;;;;;;7.57;3.60;;;16.10;1.00;;;;;;5030153;28;20464;-83
2022/09/08 05:14:02;;;;;;;6.57;4.37;;;16.00;1.00;;;;;;5031223;28;20467;-82
2022/09/08 05:16:30;;;;;;;6.40;4.90;;;16.00;1.00;;;;;;5031379;28;20472;-83
2022/09/08 05:18:59;;;;;;;8.53;5.87;;;16.00;1.00;;;;;;5030368;28;20479;-81
2022/09/08 05:21:26;;;;;;;7.07;4.03;;;16.10;1.00;;;;;;5031626;28;20513;-81
2022/09/08 05:23:55;;;;;;;9.10;4.83;;;16.00;1.00;;;;;;5031607;28;21010;-81
2022/09/08 05:26:23;;;;;;;5.93;4.33;;;16.00;1.00;;;;;;5029523;28;20448;-82
2022/09/08 05:28:55;;;;;;;5.93;4.83;;;16.00;1.00;;;;;;5030662;28;20463;-82
2022/09/08 05:31:23;;;;;;;7.17;5.10;;;16.00;1.00;;;;;;5027340;28;20447;-83
2022/09/08 05:33:50;;;;;;;6.43;4.10;;;16.10;1.00;;;;;;5027742;28;20543;-80
2022/09/08 05:36:20;;;;;;;8.30;5.40;;;16.10;1.00;;;;;;5028824;28;20574;-81
2022/09/08 05:38:47;;;;;;;11.60;7.10;;;16.00;1.00;;;;;;5027571;28;20463;-82
2022/09/08 05:41:14;;;;;;;14.33;6.57;;;16.00;1.00;;;;;;5025695;28;20976;-80
2022/09/08 05:43:40;;;;;;;10.07;4.63;;;16.10;1.00;;;;;;5022618;28;20822;-81
2022/09/08 05:46:09;;;;;;;16.63;5.40;;;16.10;4.10;;;;;;5023214;28;20452;-82
2022/09/08 05:48:37;;;;;;;14.63;4.87;;;16.10;1.00;;;;;;5026785;28;20459;-82
2022/09/08 05:51:09;;;;;;;15.20;11.67;;;16.10;1.00;;;;;;5033416;28;20428;-81
2022/09/08 05:53:36;;;;;;;11.60;5.70;;;16.10;1.00;;;;;;5033837;28;20436;-81
2022/09/08 05:56:04;;;;;;;9.80;4.90;;;16.10;1.00;;;;;;5034990;28;20490;-81
2022/09/08 05:58:32;;;;;;;9.40;6.40;;;16.10;1.00;;;;;;5033261;28;20459;-82
2022/09/08 06:01:00;;;;;;;12.93;5.57;;;16.10;1.00;;;;;;5030033;28;20934;-82
2022/09/08 06:03:29;;;;;;;4.60;3.80;;;16.10;1.00;;;;;;5031722;28;20444;-81
2022/09/08 06:05:57;;;;;;;5.80;4.70;;;16.20;1.00;;;;;;5029287;28;20443;-82
2022/09/08 06:08:24;;;;;;;5.43;4.67;;;16.30;1.00;;;;;;5028684;28;20539;-81
2022/09/08 06:10:52;;;;;;;6.20;4.30;;;16.20;1.00;;;;;;5028879;28;20444;-83
2022/09/08 06:13:21;;;;;;;6.20;4.70;;;16.30;1.00;;;;;;5027855;28;20454;-82
2022/09/08 06:15:49;;;;;;;11.23;5.57;;;16.30;1.00;;;;;;5028242;28;20450;-82
2022/09/08 06:18:16;;;;;;;15.57;6.50;;;16.40;1.00;;;;;;5027418;28;20483;-83
2022/09/08 06:20:45;;;;;;;7.33;4.67;;;16.40;1.00;;;;;;5028488;28;20452;-82
2022/09/08 06:23:12;;;;;;;5.60;4.80;;;16.40;1.00;;;;;;5027896;28;20470;-82
2022/09/08 06:25:44;;;;;;;4.70;4.30;;;16.30;1.00;;;;;;5027650;28;20446;-80
2022/09/08 06:28:19;;;;;;;7.63;4.33;;;16.30;1.00;;;;;;5027668;28;20495;-82
2022/09/08 06:30:50;;;;;;;6.87;4.43;;;16.30;1.00;;;;;;5030397;28;20428;-81
2022/09/08 06:33:23;;;;;;;9.73;4.70;;;16.40;1.00;;;;;;5032294;28;20471;-82
2022/09/08 06:35:57;;;;;;;5.60;5.10;;;16.40;1.00;;;;;;5031579;28;20447;-80
2022/09/08 06:38:30;;;;;;;11.87;4.70;;;16.40;1.00;;;;;;5031437;28;20490;-82
2022/09/08 06:41:04;;;;;;;5.63;4.50;;;16.50;1.00;;;;;;5031587;28;20436;-82
2022/09/08 06:43:37;;;;;;;5.17;4.63;;;16.40;1.00;;;;;;5031935;28;20431;-80
2022/09/08 06:46:13;;;;;;;6.57;4.50;;;16.60;1.00;;;;;;5032655;28;20451;-80
2022/09/08 06:48:41;;;;;;;7.17;5.33;;;16.60;1.00;;;;;;5030113;28;20501;-81
2022/09/08 06:51:35;;;;;;;11.23;5.50;;;16.60;1.00;;;;;;5031215;28;20460;-81
2022/09/08 06:54:21;;;;;;;7.63;5.20;;;16.50;1.00;;;;;;5031681;28;20467;-83
2022/09/08 06:57:02;;;;;;;9.50;6.13;;;16.50;1.00;;;;;;5033111;28;20471;-82
2022/09/08 06:59:43;;;;;;;6.17;5.57;;;16.40;1.00;;;;;;5027863;28;20475;-80
2022/09/08 07:02:27;;;;;;;9.23;5.23;;;16.60;1.00;;;;;;5031683;28;20460;-80
2022/09/08 07:05:01;;;;;;;7.27;4.50;;;16.60;1.00;;;;;;5031765;28;20503;-82
2022/09/08 07:07:34;;;;;;;14.67;6.40;;;16.60;1.00;;;;;;5031792;28;20443;-83
2022/09/08 07:10:05;;;;;;;7.90;5.60;;;16.60;1.00;;;;;;5032690;28;20463;-81
2022/09/08 07:12:46;;;;;;;10.30;5.57;;;16.70;1.00;;;;;;5031502;28;20459;-83
2022/09/08 07:15:37;;;;;;;6.03;4.60;;;16.70;1.00;;;;;;5030857;28;20466;-80
2022/09/08 07:18:13;;;;;;;7.40;5.40;;;16.70;1.00;;;;;;5030504;28;20533;-80
2022/09/08 07:20:39;;;;;;;6.13;5.27;;;16.70;1.00;;;;;;5030440;28;20443;-81
2022/09/08 07:23:11;;;;;;;8.87;6.97;;;16.70;1.00;;;;;;5030491;28;20447;-81
2022/09/08 07:25:44;;;;;;;13.00;7.07;;;16.70;14.50;;;;;;5028690;28;20503;-82
2022/09/08 07:28:16;;;;;;;16.10;7.00;;;16.80;1.00;;;;;;5031642;28;20463;-84
2022/09/08 07:30:43;;;;;;;5.93;5.03;;;16.80;89.00;;;;;;5032599;28;20463;-83
2022/09/08 07:33:15;;;;;;;12.63;4.67;;;16.80;22.40;;;;;;5030944;28;20491;-80
2022/09/08 07:35:54;;;;;;;6.37;5.60;;;16.90;38.60;;;;;;5031481;28;20450;-81
2022/09/08 07:38:31;;;;;;;6.93;5.43;;;17.00;1.00;;;;;;5032599;28;20487;-82
2022/09/08 07:40:59;;;;;;;8.67;5.50;;;17.00;11.50;;;;;;5030315;28;20450;-80
2022/09/08 07:43:29;;;;;;;8.83;5.30;;;17.00;1.00;;;;;;5030014;28;20466;-81
2022/09/08 07:46:10;;;;;;;7.50;5.73;;;17.00;24.00;;;;;;5031324;28;20522;-82
2022/09/08 07:48:45;;;;;;;5.83;5.20;;;16.90;40.40;;;;;;5031774;28;20471;-82
2022/09/08 07:51:21;;;;;;;9.37;6.40;;;17.00;62.40;;;;;;5031953;28;20503;-80
2022/09/08 07:54:03;;;;;;;10.93;5.37;;;17.00;60.20;;;;;;5031687;28;20474;-81
2022/09/08 07:56:39;;;;;;;9.10;5.93;;;17.00;38.80;;;;;;5030626;28;20977;-82
2022/09/08 07:59:31;;;;;;;14.03;6.53;;;17.20;25.60;;;;;;5028816;28;20985;-80
2022/09/08 08:02:12;;;;;;;9.67;5.87;;;17.20;18.40;;;;;;5026058;28;21025;-84
2022/09/08 08:04:54;;;;;;;12.10;5.33;;;17.30;25.20;;;;;;5029730;28;20454;-82
2022/09/08 08:07:31;;;;;;;16.70;7.00;;;17.30;33.30;;;;;;5027983;28;20442;-83
2022/09/08 08:10:11;;;;;;;7.60;5.90;;;17.40;40.90;;;;;;5024942;28;20427;-81
2022/09/08 08:12:46;;;;;;;6.53;5.07;;;17.30;65.90;;;;;;5025313;28;20435;-81
2022/09/08 08:15:19;;;;;;;12.83;7.63;;;17.40;65.90;;;;;;5027281;28;20431;-80
2022/09/08 08:17:54;;;;;;;10.50;6.20;;;17.20;99.90;;;;;;5029386;28;20554;-82
2022/09/08 08:20:34;;;;;;;11.23;5.57;;;17.30;99.90;;;;;;5040368;22;20494;-75
2022/09/08 08:23:36;;;;;;;9.87;6.27;;;17.20;99.90;;;;;;5015003;28;20898;-73
2022/09/08 08:26:13;;;;;;;20.70;5.77;;;17.20;99.90;;;;;;5014397;28;20950;-74
2022/09/08 08:28:42;;;;;;;12.40;6.33;;;17.20;99.90;;;;;;5015046;28;20985;-74
2022/09/08 08:31:25;;;;;;;9.97;5.80;;;17.20;99.90;;;;;;5015164;28;20443;-74
2022/09/08 08:33:56;;;;;;;15.53;5.80;;;17.20;99.90;;;;;;5014769;28;20440;-74
2022/09/08 08:36:26;;;;;;;13.10;6.47;;;17.20;99.90;;;;;;5015183;28;20526;-74
2022/09/08 08:39:01;;;;;;;12.47;6.63;;;17.30;99.90;;;;;;5014742;28;21032;-74
2022/09/08 08:41:41;;;;;;;7.80;6.43;;;17.20;99.90;;;;;;5014615;28;20889;-74
2022/09/08 08:44:22;;;;;;;12.93;5.87;;;17.20;99.90;;;;;;5014367;28;20915;-74
2022/09/08 08:47:23;;;;;;;10.30;6.17;;;17.20;1.00;;;;;;5014688;28;20482;-73
2022/09/08 08:50:20;;;;;;;16.10;6.60;;;17.10;99.90;;;;;;5014693;28;20471;-74
2022/09/08 08:53:02;;;;;;;11.37;6.03;;;16.80;1.00;;;;;;5014000;28;20494;-73
2022/09/08 08:55:43;;;;;;;7.43;6.00;;;16.70;1.00;;;;;;5014773;28;20490;-74
2022/09/08 08:58:35;;;;;;;8.30;6.33;;;16.70;1.00;;;;;;5014126;28;20977;-73
2022/09/08 09:01:10;;;;;;;9.80;7.30;;;16.70;96.40;;;;;;5014542;28;20440;-73
2022/09/08 09:03:59;;;;;;;11.60;6.97;;;16.70;1.00;;;;;;5014393;28;20438;-74
2022/09/08 09:06:41;;;;;;;7.33;6.00;;;16.70;1.00;;;;;;5014689;28;20432;-74
2022/09/08 09:09:41;;;;;;;17.00;7.23;;;16.80;5.40;;;;;;5014566;28;20471;-73
2022/09/08 09:12:31;;;;;;;11.60;6.10;;;16.80;99.90;;;;;;5004402;28;20455;-73
2022/09/08 09:15:21;;;;;;;11.47;7.17;;;16.90;1.00;;;;;;5014284;28;20910;-73
2022/09/08 09:18:05;;;;;;;16.23;7.73;;;17.00;1.00;;;;;;5014500;28;20495;-74
2022/09/08 09:20:52;;;;;;;12.00;7.60;;;17.10;1.00;;;;;;5013951;28;20834;-73
2022/09/08 09:23:35;;;;;;;12.80;7.53;;;17.20;1.00;;;;;;5014349;28;20899;-74
2022/09/08 09:26:10;;;;;;;17.47;8.30;;;17.20;1.00;;;;;;5013859;28;20436;-73
2022/09/08 09:28:54;;;;;;;12.13;7.83;;;17.40;99.90;;;;;;5013622;28;20459;-73
2022/09/08 09:32:01;;;;;;;11.63;7.90;;;17.40;99.90;;;;;;5013625;28;20435;-73
2022/09/08 09:34:49;;;;;;;11.87;6.90;;;17.40;1.00;;;;;;5013851;28;20518;-75
2022/09/08 09:37:37;;;;;;;13.70;12.10;;;17.50;99.90;;;;;;5013363;28;20958;-74
2022/09/08 09:40:17;;;;;;;15.40;8.87;;;17.50;1.00;;;;;;5010822;28;21037;-74
2022/09/08 09:42:58;;;;;;;9.87;7.73;;;17.50;1.00;;;;;;5013798;28;20432;-74
2022/09/08 09:45:42;;;;;;;13.80;7.57;;;17.50;99.90;;;;;;5013640;28;20439;-73
2022/09/08 09:48:27;;;;;;;11.63;8.00;;;17.60;1.00;;;;;;5013570;28;20432;-74
2022/09/08 09:51:06;;;;;;;9.60;7.33;;;17.60;1.00;;;;;;5013942;28;20523;-74
2022/09/08 09:53:50;;;;;;;14.93;8.60;;;17.60;99.90;;;;;;5013760;28;20446;-74
2022/09/08 09:57:00;;;;;;;16.77;9.07;;;17.60;99.90;;;;;;5013729;28;20473;-74
2022/09/08 09:59:48;;;;;;;9.37;8.03;;;17.60;99.90;;;;;;4998407;28;20541;-74
2022/09/08 10:02:36;;;;;;;10.93;8.70;;;17.70;99.90;;;;;;5013407;28;20431;-74
2022/09/08 10:05:32;;;;;;;11.30;7.80;;;17.70;16.60;;;;;;5012943;28;20835;-74
2022/09/08 10:08:32;;;;;;;12.33;8.67;;;17.70;1.00;;;;;;5013871;28;20420;-74
2022/09/08 10:11:24;;;;;;;9.97;7.73;;;17.70;58.10;;;;;;5013305;28;20474;-73
2022/09/08 10:14:33;;;;;;;12.20;8.40;;;17.70;99.90;;;;;;5013474;28;20519;-74
2022/09/08 10:17:17;;;;;;;15.93;8.10;;;17.80;98.90;;;;;;4989314;28;20545;-73
2022/09/08 10:20:23;;;;;;;10.53;8.17;;;17.90;99.90;;;;;;5013015;28;20480;-74
2022/09/08 10:23:17;;;;;;;8.73;7.63;;;17.90;99.90;;;;;;5013406;28;20435;-74
2022/09/08 10:26:20;;;;;;;14.00;8.97;;;17.90;99.90;;;;;;5013428;28;20486;-73
2022/09/08 10:29:21;;;;;;;11.47;9.77;;;17.90;9.00;;;;;;5013332;28;20463;-73
2022/09/08 10:32:21;;;;;;;11.47;8.97;;;17.80;99.90;;;;;;5013109;28;20502;-74
2022/09/08 10:35:15;;;;;;;13.00;10.33;;;17.80;1.00;;;;;;5013305;28;20428;-74
2022/09/08 10:38:10;;;;;;;17.30;10.70;;;17.70;1.00;;;;;;5013381;28;20475;-73
2022/09/08 10:40:44;;;;;;;20.00;9.60;;;17.70;12.00;;;;;;5014491;28;20451;-73
2022/09/08 10:43:45;;;;;;;22.87;14.57;;;17.60;66.00;;;;;;5013721;28;20436;-74
2022/09/08 10:46:41;;;;;;;17.93;12.20;;;17.00;99.90;;;;;;5013789;28;20431;-73
2022/09/08 10:49:33;;;;;;;19.83;12.50;;;16.50;99.90;;;;;;5013578;28;20459;-73
2022/09/08 10:52:28;;;;;;;23.17;13.73;;;16.10;99.90;;;;;;5013823;28;20440;-74
2022/09/08 10:55:16;;;;;;;25.00;14.23;;;15.90;99.90;;;;;;5015728;28;20443;-74
2022/09/08 10:58:01;;;;;;;18.97;13.13;;;15.80;99.90;;;;;;5014014;28;20483;-74
2022/09/08 11:00:35;;;;;;;17.73;15.57;;;15.80;99.90;;;;;;5013677;28;20467;-73
2022/09/08 11:03:27;;;;;;;19.23;15.83;;;15.90;99.90;;;;;;5014012;28;20427;-73
2022/09/08 11:06:04;;;;;;;23.13;16.20;;;16.00;99.90;;;;;;5013606;28;20435;-74
2022/09/08 11:08:56;;;;;;;21.30;14.87;;;16.10;99.90;;;;;;5014694;28;20459;-74
2022/09/08 11:11:56;;;;;;;21.60;16.70;;;16.00;99.90;;;;;;5014586;28;20428;-74
2022/09/08 11:14:59;;;;;;;22.83;17.00;;;16.00;99.90;;;;;;5013268;28;20432;-74
2022/09/08 11:17:28;;;;;;;18.50;16.10;;;15.90;99.90;;;;;;5007603;28;21064;-74
2022/09/08 11:20:03;;;;;;;19.93;16.73;;;16.00;99.90;;;;;;5016885;28;20541;-74
2022/09/08 11:22:59;;;;;;;24.57;16.40;;;15.90;99.90;;;;;;5017154;28;20462;-74
2022/09/08 11:25:46;;;;;;;23.50;17.50;;;15.90;99.90;;;;;;5004004;28;21072;-74
2022/09/08 11:28:22;;;;;;;20.57;16.80;;;16.00;99.90;;;;;;5017177;28;20423;-74
2022/09/08 11:31:00;;;;;;;21.43;18.40;;;15.90;99.90;;;;;;5017194;28;20436;-74
2022/09/08 11:33:56;;;;;;;25.93;18.80;;;15.90;99.90;;;;;;5016603;28;20436;-73
2022/09/08 11:36:43;;;;;;;23.87;18.63;;;15.90;99.90;;;;;;5016392;28;20443;-74
2022/09/08 11:39:24;;;;;;;24.07;21.57;;;15.90;99.90;;;;;;5024327;28;20494;-74
2022/09/08 11:42:17;;;;;;;22.10;19.90;;;16.10;99.90;;;;;;5023324;28;20439;-73
2022/09/08 11:44:51;;;;;;;25.13;20.33;;;16.10;99.90;;;;;;5017868;28;20436;-73
2022/09/08 11:47:55;;;;;;;26.17;20.67;;;16.10;99.90;;;;;;5016360;28;20438;-74
2022/09/08 11:50:36;;;;;;;27.77;22.10;;;16.10;99.90;;;;;;5015723;28;20989;-73
2022/09/08 11:53:43;;;;;;;26.63;23.70;;;16.10;99.90;;;;;;5015836;28;20443;-73
2022/09/08 11:56:24;;;;;;;29.40;23.37;;;16.10;99.90;;;;;;5015990;28;20447;-74
2022/09/08 11:59:07;;;;;;;25.60;21.23;;;16.10;99.90;;;;;;5015946;28;20487;-74
2022/09/08 12:01:42;;;;;;;27.73;20.17;;;16.10;99.90;;;;;;5015855;28;20443;-73
2022/09/08 12:04:31;;;;;;;30.37;21.63;;;16.10;99.90;;;;;;5015878;28;20431;-74
2022/09/08 12:07:35;;;;;;;25.10;19.60;;;16.10;99.90;;;;;;5013768;28;20447;-74
2022/09/08 12:10:23;;;;;;;21.40;19.17;;;16.10;99.90;;;;;;5014572;28;20476;-73
2022/09/08 12:12:59;;;;;;;22.80;19.07;;;16.10;99.90;;;;;;5015687;28;20478;-73
2022/09/08 12:15:51;;;;;;;20.50;17.57;;;16.20;99.90;;;;;;5015494;28;20459;-73
2022/09/08 12:18:32;;;;;;;24.47;20.60;;;16.50;99.90;;;;;;5009915;28;20479;-73
2022/09/08 12:21:30;;;;;;;20.90;18.73;;;16.20;99.90;;;;;;5015350;28;20471;-73
2022/09/08 12:24:12;;;;;;;28.27;19.00;;;16.20;99.90;;;;;;5015299;28;20428;-73
2022/09/08 12:26:47;;;;;;;23.17;18.73;;;16.20;99.90;;;;;;5015299;28;20444;-73
2022/09/08 12:29:36;;;;;;;21.37;18.93;;;16.30;99.90;;;;;;5014568;28;20836;-74
2022/09/08 12:32:33;;;;;;;21.80;19.43;;;16.40;99.90;;;;;;5015226;28;20506;-74
2022/09/08 12:35:30;;;;;;;30.57;18.30;;;16.50;99.90;;;;;;5015097;28;20910;-73
2022/09/08 12:38:08;;;;;;;22.77;17.70;;;16.60;99.90;;;;;;5014967;28;20467;-73
2022/09/08 12:40:57;;;;;;;23.43;17.30;;;16.70;99.90;;;;;;5014833;28;20464;-73
2022/09/08 12:43:25;;;;;;;22.87;16.07;;;16.70;99.90;;;;;;5014930;28;20496;-73
2022/09/08 12:46:30;;;;;;;18.90;16.00;;;16.60;99.90;;;;;;5014337;28;20980;-73
2022/09/08 12:49:18;;;;;;;17.87;16.03;;;16.60;99.90;;;;;;4984131;28;20507;-76
2022/09/08 12:51:45;;;;;;;26.83;17.10;;;16.70;99.90;;;;;;5012157;28;20451;-73
2022/09/08 12:54:21;;;;;;;20.40;18.30;;;16.70;99.90;;;;;;5014591;28;20447;-73
2022/09/08 12:57:10;;;;;;;25.37;19.90;;;16.80;99.90;;;;;;5014588;28;20439;-73
2022/09/08 12:59:50;;;;;;;21.60;16.50;;;16.80;99.90;;;;;;5004360;28;20492;-73
2022/09/08 13:02:31;;;;;;;21.10;19.10;;;16.80;99.90;;;;;;5014598;28;20463;-73
2022/09/08 13:05:15;;;;;;;20.20;17.73;;;16.90;99.90;;;;;;5014126;28;20436;-73
2022/09/08 13:07:47;;;;;;;19.80;17.57;;;16.90;99.90;;;;;;5014557;28;20456;-73
2022/09/08 13:10:24;;;;;;;19.83;17.70;;;17.00;99.90;;;;;;5014526;28;20475;-74
2022/09/08 13:13:09;;;;;;;25.70;23.00;;;17.10;99.90;;;;;;5014470;28;20431;-73
2022/09/08 13:15:43;;;;;;;20.70;18.60;;;17.20;99.90;;;;;;5014488;28;20440;-73
2022/09/08 13:18:24;;;;;;;27.10;19.43;;;17.20;99.90;;;;;;5014479;28;20521;-74
2022/09/08 13:20:53;;;;;;;23.00;18.30;;;17.20;99.90;;;;;;5014276;28;20426;-73
2022/09/08 13:23:35;;;;;;;22.93;20.53;;;17.30;99.90;;;;;;5014244;28;20445;-74
2022/09/08 13:26:19;;;;;;;18.83;16.80;;;17.40;99.90;;;;;;5014536;28;20435;-74
2022/09/08 13:29:17;;;;;;;20.03;17.83;;;17.40;99.90;;;;;;5016560;28;20868;-73
2022/09/08 13:31:51;;;;;;;26.00;19.80;;;17.50;99.90;;;;;;5018949;28;20466;-73
2022/09/08 13:34:37;;;;;;;24.23;19.27;;;17.50;99.90;;;;;;5017184;28;20427;-73
2022/09/08 13:37:14;;;;;;;21.93;18.83;;;17.50;99.90;;;;;;5014237;28;20446;-74